createdAt,value
2022-08-05T00:00:01.703Z,0.03888888888888889
2022-08-05T00:01:13.559Z,0.03888888888888889
2022-08-05T00:02:07.642Z,0.03888888888888889
2022-08-05T00:03:00.865Z,0.08055555555555555
2022-08-05T00:04:00.581Z,0
2022-08-05T00:05:00.251Z,0
2022-08-05T00:06:22.161Z,0.049999999999999996
2022-08-05T00:07:01.442Z,0.03333333333333333
2022-08-05T00:08:01.668Z,0
2022-08-05T00:09:01.239Z,0.08055555555555555
2022-08-05T00:10:01.013Z,0
2022-08-05T00:11:01.363Z,0
2022-08-05T00:12:00.613Z,0
2022-08-05T00:13:01.383Z,0.11944444444444444
2022-08-05T00:14:00.651Z,0
2022-08-05T00:15:54.176Z,0
2022-08-05T00:16:00.944Z,0
2022-08-05T00:17:01.840Z,0
2022-08-05T00:18:02.559Z,0
2022-08-05T00:19:00.880Z,0
2022-08-05T00:20:02.569Z,0
2022-08-05T00:21:00.597Z,0
2022-08-05T00:22:00.396Z,0
2022-08-05T00:23:12.472Z,0
2022-08-05T00:24:10.561Z,0
2022-08-05T00:25:01.260Z,0
2022-08-05T00:26:01.662Z,0
2022-08-05T00:27:00.799Z,0
2022-08-05T00:28:01.448Z,0
2022-08-05T00:29:01.235Z,0
2022-08-05T00:30:03.159Z,0
2022-08-05T00:31:07.702Z,0
2022-08-05T00:32:12.651Z,0
2022-08-05T00:33:02.104Z,0
2022-08-05T00:34:56.561Z,0
2022-08-05T00:35:06.932Z,0.08055555555555555
2022-08-05T00:36:15.988Z,0
2022-08-05T00:37:10.922Z,0
2022-08-05T00:38:01.292Z,0.15833333333333333
2022-08-05T00:39:02.519Z,0
2022-08-05T00:40:01.231Z,0.019444444444444445
2022-08-05T00:41:12.134Z,0
2022-08-05T00:42:03.058Z,0.036111111111111115
2022-08-05T00:43:00.932Z,0
2022-08-05T00:44:00.860Z,0
2022-08-05T00:45:00.850Z,0
2022-08-05T00:46:14.934Z,0
2022-08-05T00:47:03.899Z,0
2022-08-05T00:48:05.737Z,0
2022-08-05T00:49:03.491Z,0.03333333333333333
2022-08-05T00:50:00.756Z,0
2022-08-05T00:51:51.410Z,0
2022-08-05T00:52:01.399Z,0.15833333333333333
2022-08-05T00:53:01.014Z,0
2022-08-05T00:54:02.999Z,0.08055555555555555
2022-08-05T00:55:01.426Z,0.31666666666666665
2022-08-05T00:56:00.921Z,0.15833333333333333
2022-08-05T00:57:01.039Z,0.23888888888888887
2022-08-05T00:58:01.352Z,0
2022-08-05T00:59:00.766Z,0.2777777777777778
2022-08-05T01:00:01.039Z,0
2022-08-05T01:01:00.816Z,0.15833333333333333
2022-08-05T01:02:00.696Z,0.15833333333333333
2022-08-05T01:03:01.326Z,0
2022-08-05T01:04:01.402Z,0.2777777777777778
2022-08-05T01:05:01.201Z,0.019444444444444445
2022-08-05T01:06:01.486Z,0.15833333333333333
2022-08-05T01:07:02.693Z,0.08055555555555555
2022-08-05T01:08:40.002Z,0
2022-08-05T01:09:01.097Z,0.07777777777777778
2022-08-05T01:10:01.223Z,0.03333333333333333
2022-08-05T01:11:00.809Z,0.4361111111111111
2022-08-05T01:12:04.777Z,0
2022-08-05T01:13:12.780Z,0
2022-08-05T01:14:00.913Z,0.2777777777777778
2022-08-05T01:15:03.840Z,0.15833333333333333
2022-08-05T01:16:00.874Z,0
2022-08-05T01:17:00.852Z,0
2022-08-05T01:18:01.054Z,0.31666666666666665
2022-08-05T01:19:01.073Z,0
2022-08-05T01:20:03.265Z,0
2022-08-05T01:21:00.878Z,0
2022-08-05T01:22:01.014Z,0
2022-08-05T01:23:00.645Z,0
2022-08-05T01:24:01.099Z,0
2022-08-05T01:25:01.088Z,0
2022-08-05T01:26:00.806Z,0
2022-08-05T01:27:00.530Z,0
2022-08-05T01:28:02.622Z,0
2022-08-05T01:29:04.254Z,0
2022-08-05T01:30:01.030Z,0
2022-08-05T01:31:00.844Z,0.19999999999999998
2022-08-05T01:32:02.402Z,0
2022-08-05T01:33:00.845Z,0.03888888888888889
2022-08-05T01:34:01.000Z,0
2022-08-05T01:35:00.767Z,0
2022-08-05T01:36:00.422Z,0.25833333333333336
2022-08-05T01:37:01.033Z,0
2022-08-05T01:38:00.771Z,0
2022-08-05T01:39:01.289Z,0
2022-08-05T01:40:01.012Z,0
2022-08-05T01:41:01.528Z,0
2022-08-05T01:42:01.298Z,0.14444444444444446
2022-08-05T01:43:01.664Z,0.3972222222222222
2022-08-05T01:44:01.047Z,0.31666666666666665
2022-08-05T01:45:02.251Z,0.23888888888888887
2022-08-05T01:46:07.514Z,0.08055555555555555
2022-08-05T01:47:00.534Z,0.15833333333333333
2022-08-05T01:48:00.230Z,0.2777777777777778
2022-08-05T01:48:59.892Z,0.11666666666666665
2022-08-05T01:50:01.475Z,0.15833333333333333
2022-08-05T01:51:00.587Z,0
2022-08-05T01:52:01.026Z,0
2022-08-05T01:53:00.872Z,0
2022-08-05T01:54:02.140Z,0
2022-08-05T01:55:01.323Z,0
2022-08-05T01:56:00.995Z,0
2022-08-05T01:58:11.651Z,0
2022-08-05T01:58:12.461Z,0
2022-08-05T01:59:01.986Z,0
2022-08-05T02:00:00.748Z,0
2022-08-05T02:01:00.416Z,0
2022-08-05T02:02:00.900Z,0
2022-08-05T02:03:00.631Z,0
2022-08-05T02:04:00.791Z,0
2022-08-05T02:05:00.439Z,0
2022-08-05T02:06:00.993Z,0
2022-08-05T02:07:03.541Z,0
2022-08-05T02:08:02.004Z,0
2022-08-05T02:09:00.876Z,0
2022-08-05T02:10:00.694Z,0
2022-08-05T02:11:00.603Z,0
2022-08-05T02:12:02.477Z,0
2022-08-05T02:13:01.430Z,0
2022-08-05T02:14:00.652Z,0
2022-08-05T02:15:03.017Z,0
2022-08-05T02:16:01.246Z,0
2022-08-05T02:17:05.495Z,0
2022-08-05T02:18:30.758Z,0.23888888888888887
2022-08-05T02:19:01.176Z,0.19999999999999998
2022-08-05T02:20:01.286Z,0.19999999999999998
2022-08-05T02:21:00.852Z,0.19444444444444442
2022-08-05T02:22:08.905Z,0
2022-08-05T02:23:01.515Z,0
2022-08-05T02:24:01.164Z,0
2022-08-05T02:25:02.726Z,0
2022-08-05T02:26:01.485Z,0
2022-08-05T02:27:09.096Z,0
2022-08-05T02:28:00.762Z,0
2022-08-05T02:29:01.243Z,0
2022-08-05T02:30:01.077Z,0
2022-08-05T02:31:01.354Z,0
2022-08-05T02:32:19.773Z,0
2022-08-05T02:33:01.011Z,0
2022-08-05T02:34:00.777Z,0
2022-08-05T02:35:09.824Z,0
2022-08-05T02:36:01.540Z,0
2022-08-05T02:37:15.769Z,0.19999999999999998
2022-08-05T02:38:02.270Z,0
2022-08-05T02:39:00.969Z,0.15833333333333333
2022-08-05T02:40:00.913Z,0.11944444444444444
2022-08-05T02:41:00.583Z,0
2022-08-05T02:42:01.651Z,0
2022-08-05T02:43:01.249Z,0
2022-08-05T02:44:02.919Z,0
2022-08-05T02:45:01.046Z,0
2022-08-05T02:46:01.195Z,0
2022-08-05T02:47:01.349Z,0
2022-08-05T02:48:12.098Z,0
2022-08-05T02:49:01.162Z,0
2022-08-05T02:50:01.027Z,0
2022-08-05T02:51:00.861Z,0
2022-08-05T02:52:02.745Z,0
2022-08-05T02:53:02.491Z,0.03888888888888889
2022-08-05T02:54:04.041Z,0
2022-08-05T02:55:02.008Z,0
2022-08-05T02:56:02.355Z,0
2022-08-05T02:57:01.408Z,0
2022-08-05T02:58:12.112Z,0
2022-08-05T02:59:01.106Z,0
2022-08-05T03:00:01.389Z,0
2022-08-05T03:01:02.006Z,0
2022-08-05T03:02:01.319Z,0
2022-08-05T03:03:01.147Z,0
2022-08-05T03:04:03.330Z,0
2022-08-05T03:05:00.853Z,0
2022-08-05T03:06:56.394Z,0
2022-08-05T03:07:02.403Z,0
2022-08-05T03:08:08.626Z,0
2022-08-05T03:09:01.881Z,0
2022-08-05T03:10:01.293Z,0
2022-08-05T03:11:53.669Z,0
2022-08-05T03:12:01.836Z,0
2022-08-05T03:14:03.351Z,0
2022-08-05T03:15:01.148Z,0
2022-08-05T03:16:00.769Z,0
2022-08-05T03:17:00.872Z,0
2022-08-05T03:18:00.715Z,0
2022-08-05T03:19:00.867Z,0
2022-08-05T03:20:00.882Z,0
2022-08-05T03:21:00.889Z,0
2022-08-05T03:22:00.572Z,0
2022-08-05T03:23:00.553Z,0
2022-08-05T03:24:00.875Z,0
2022-08-05T03:25:02.242Z,0
2022-08-05T03:26:04.585Z,0
2022-08-05T03:27:00.819Z,0
2022-08-05T03:28:00.768Z,0
2022-08-05T03:29:00.501Z,0
2022-08-05T03:30:08.072Z,0
2022-08-05T03:31:00.686Z,0
2022-08-05T03:32:00.732Z,0
2022-08-05T03:33:00.878Z,0
2022-08-05T03:34:00.618Z,0
2022-08-05T03:35:00.893Z,0
2022-08-05T03:36:00.637Z,0
2022-08-05T03:37:00.467Z,0
2022-08-05T03:38:00.562Z,0
2022-08-05T03:39:00.260Z,0
2022-08-05T03:40:03.983Z,0
2022-08-05T03:41:07.204Z,0
2022-08-05T03:42:00.924Z,0
2022-08-05T03:43:58.973Z,0
2022-08-05T03:44:11.246Z,0
2022-08-05T03:45:01.886Z,0
2022-08-05T03:46:01.023Z,0
2022-08-05T03:47:00.643Z,0
2022-08-05T03:48:00.968Z,0
2022-08-05T03:49:01.919Z,0
2022-08-05T03:50:01.367Z,0
2022-08-05T03:52:35.465Z,0
2022-08-05T03:52:38.778Z,0
2022-08-05T03:54:59.396Z,0
2022-08-05T03:55:54.209Z,0
2022-08-05T03:56:05.391Z,0
2022-08-05T03:56:11.574Z,0
2022-08-05T03:57:00.999Z,0
2022-08-05T03:58:01.224Z,0
2022-08-05T03:59:01.230Z,0
2022-08-05T04:00:01.698Z,0
2022-08-05T04:01:01.194Z,0
2022-08-05T04:02:01.178Z,0
2022-08-05T04:03:02.247Z,0
2022-08-05T04:04:10.018Z,0
2022-08-05T04:05:00.953Z,0
2022-08-05T04:06:01.055Z,0
2022-08-05T04:07:00.743Z,0
2022-08-05T04:08:01.411Z,0
2022-08-05T04:09:00.647Z,0
2022-08-05T04:10:01.702Z,0
2022-08-05T04:11:01.481Z,0
2022-08-05T04:12:01.341Z,0
2022-08-05T04:13:04.257Z,0
2022-08-05T04:14:01.254Z,0
2022-08-05T04:15:01.184Z,0
2022-08-05T04:16:04.462Z,0
2022-08-05T04:17:02.961Z,0
2022-08-05T04:18:03.178Z,0
2022-08-05T04:19:00.915Z,0
2022-08-05T04:20:00.638Z,0
2022-08-05T04:21:00.646Z,0
2022-08-05T04:22:09.352Z,0
2022-08-05T04:23:06.253Z,0
2022-08-05T04:24:06.709Z,0.33055555555555555
2022-08-05T04:25:01.073Z,0.31666666666666665
2022-08-05T04:26:01.152Z,0.31666666666666665
2022-08-05T04:27:01.810Z,0.2777777777777778
2022-08-05T04:28:12.841Z,0.15833333333333333
2022-08-05T04:29:01.240Z,0.03888888888888889
2022-08-05T04:30:03.503Z,0.15833333333333333
2022-08-05T04:31:01.603Z,0.03888888888888889
2022-08-05T04:32:01.088Z,0.036111111111111115
2022-08-05T04:33:10.410Z,0.15833333333333333
2022-08-05T04:34:18.783Z,0.23888888888888887
2022-08-05T04:35:01.138Z,0.33888888888888885
2022-08-05T04:36:16.831Z,0.47777777777777775
2022-08-05T04:37:00.872Z,0.4361111111111111
2022-08-05T04:38:15.598Z,0.2777777777777778
2022-08-05T04:39:01.003Z,0.08055555555555555
2022-08-05T04:40:01.419Z,0.19999999999999998
2022-08-05T04:41:01.060Z,0.15833333333333333
2022-08-05T04:42:01.755Z,0.08055555555555555
2022-08-05T04:43:16.906Z,0.23888888888888887
2022-08-05T04:44:01.508Z,0.23888888888888887
2022-08-05T04:45:01.034Z,0
2022-08-05T04:46:00.851Z,0
2022-08-05T04:47:09.900Z,0
2022-08-05T04:48:01.517Z,0
2022-08-05T04:49:01.009Z,0.3972222222222222
2022-08-05T04:50:11.246Z,0.41666666666666663
2022-08-05T04:51:02.593Z,0.35833333333333334
2022-08-05T04:52:00.831Z,0.19722222222222222
2022-08-05T04:53:00.539Z,0.11944444444444444
2022-08-05T04:54:01.248Z,0.11944444444444444
2022-08-05T04:55:13.822Z,0
2022-08-05T04:56:32.356Z,0.15833333333333333
2022-08-05T04:57:00.874Z,0.2777777777777778
2022-08-05T04:58:00.585Z,0.2777777777777778
2022-08-05T04:59:00.379Z,0.19999999999999998
2022-08-05T05:00:01.314Z,0
2022-08-05T05:01:01.269Z,0
2022-08-05T05:02:07.208Z,0
2022-08-05T05:03:03.700Z,0
2022-08-05T05:04:01.221Z,0
2022-08-05T05:05:01.632Z,0
2022-08-05T05:06:39.594Z,0
2022-08-05T05:07:01.138Z,0
2022-08-05T05:08:02.022Z,0
2022-08-05T05:09:01.142Z,0
2022-08-05T05:10:02.135Z,0
2022-08-05T05:11:01.260Z,0.03888888888888889
2022-08-05T05:12:02.920Z,0.08055555555555555
2022-08-05T05:13:03.987Z,0
2022-08-05T05:14:01.345Z,0
2022-08-05T05:15:03.752Z,0
2022-08-05T05:16:02.261Z,0.15833333333333333
2022-08-05T05:17:01.591Z,0.08055555555555555
2022-08-05T05:18:01.147Z,0.19999999999999998
2022-08-05T05:19:19.042Z,0.08055555555555555
2022-08-05T05:20:01.027Z,0
2022-08-05T05:21:01.008Z,0
2022-08-05T05:22:03.567Z,0.2777777777777778
2022-08-05T05:23:08.183Z,0
2022-08-05T05:24:03.710Z,0.019444444444444445
2022-08-05T05:25:01.782Z,0.4361111111111111
2022-08-05T05:26:01.380Z,0.2361111111111111
2022-08-05T05:27:00.970Z,0.15833333333333333
2022-08-05T05:28:01.085Z,0
2022-08-05T05:29:02.136Z,0.12222222222222222
2022-08-05T05:30:04.652Z,0.31666666666666665
2022-08-05T05:31:01.102Z,0.31666666666666665
2022-08-05T05:32:01.005Z,0.03888888888888889
2022-08-05T05:33:09.215Z,0.11111111111111112
2022-08-05T05:34:01.901Z,0.08888888888888889
2022-08-05T05:35:01.220Z,0.06944444444444445
2022-08-05T05:36:01.026Z,0.31666666666666665
2022-08-05T05:37:01.837Z,0
2022-08-05T05:38:02.001Z,0.15833333333333333
2022-08-05T05:39:03.795Z,0.3222222222222222
2022-08-05T05:40:01.031Z,0.11944444444444444
2022-08-05T05:41:00.841Z,0.19999999999999998
2022-08-05T05:42:01.674Z,0
2022-08-05T05:43:02.161Z,0.15833333333333333
2022-08-05T05:44:01.588Z,0.17222222222222222
2022-08-05T05:45:00.986Z,0.19999999999999998
2022-08-05T05:46:01.317Z,0.5166666666666667
2022-08-05T05:47:04.055Z,0.08055555555555555
2022-08-05T05:48:06.061Z,0.4361111111111111
2022-08-05T05:49:06.404Z,0.036111111111111115
2022-08-05T05:50:01.430Z,0.35833333333333334
2022-08-05T05:51:13.034Z,0
2022-08-05T05:52:01.435Z,0
2022-08-05T05:53:00.620Z,0.18333333333333335
2022-08-05T05:54:06.002Z,0.11944444444444444
2022-08-05T05:55:01.751Z,0.3027777777777778
2022-08-05T05:56:03.054Z,0.11944444444444444
2022-08-05T05:57:01.432Z,0
2022-08-05T05:58:01.972Z,0.31666666666666665
2022-08-05T05:59:08.303Z,0.23888888888888887
2022-08-05T06:00:01.316Z,0.03888888888888889
2022-08-05T06:01:12.153Z,0.03333333333333333
2022-08-05T06:02:03.038Z,0.09722222222222221
2022-08-05T06:03:01.390Z,0.08055555555555555
2022-08-05T06:04:12.713Z,0.03888888888888889
2022-08-05T06:05:01.235Z,0.19999999999999998
2022-08-05T06:06:02.272Z,0.08055555555555555
2022-08-05T06:07:01.543Z,0.31666666666666665
2022-08-05T06:08:02.109Z,0
2022-08-05T06:09:17.601Z,0.22222222222222224
2022-08-05T06:10:04.646Z,0
2022-08-05T06:11:01.318Z,0.3972222222222222
2022-08-05T06:12:02.912Z,0.03888888888888889
2022-08-05T06:13:01.192Z,0.31666666666666665
2022-08-05T06:14:15.082Z,0.03888888888888889
2022-08-05T06:15:01.081Z,0.03888888888888889
2022-08-05T06:16:30.169Z,0.17777777777777778
2022-08-05T06:17:02.246Z,0
2022-08-05T06:18:01.179Z,0.11944444444444444
2022-08-05T06:19:02.196Z,0.15833333333333333
2022-08-05T06:20:00.930Z,0.19999999999999998
2022-08-05T06:21:00.751Z,0.31666666666666665
2022-08-05T06:22:00.392Z,0.11944444444444444
2022-08-05T06:23:00.021Z,0
2022-08-05T06:24:01.629Z,0.19722222222222222
2022-08-05T06:25:00.842Z,0.2777777777777778
2022-08-05T06:26:20.809Z,0.23888888888888887
2022-08-05T06:27:01.582Z,0.2972222222222222
2022-08-05T06:28:10.965Z,0.03888888888888889
2022-08-05T06:29:03.360Z,0.23888888888888887
2022-08-05T06:30:02.819Z,0
2022-08-05T06:31:02.229Z,0.2777777777777778
2022-08-05T06:32:01.176Z,0.08055555555555555
2022-08-05T06:33:01.096Z,0.11944444444444444
2022-08-05T06:34:07.998Z,0.15833333333333333
2022-08-05T06:35:05.884Z,0
2022-08-05T06:36:07.208Z,0
2022-08-05T06:37:01.131Z,0.036111111111111115
2022-08-05T06:38:10.173Z,0.08055555555555555
2022-08-05T06:39:00.871Z,0
2022-08-05T06:40:00.626Z,0
2022-08-05T06:41:00.647Z,0.23888888888888887
2022-08-05T06:42:01.221Z,0.08055555555555555
2022-08-05T06:43:01.365Z,0.07777777777777778
2022-08-05T06:44:00.898Z,0.09999999999999999
2022-08-05T06:45:00.721Z,0
2022-08-05T06:46:06.441Z,0.05833333333333333
2022-08-05T06:47:01.406Z,0.5166666666666667
2022-08-05T06:48:36.841Z,0.11944444444444444
2022-08-05T06:49:02.044Z,0.15833333333333333
2022-08-05T06:50:05.005Z,0.23888888888888887
2022-08-05T06:51:01.465Z,0.2333333333333333
2022-08-05T06:52:02.372Z,0
2022-08-05T06:53:11.290Z,0.11944444444444444
2022-08-05T06:54:02.030Z,0.11666666666666665
2022-08-05T06:55:02.499Z,0.23888888888888887
2022-08-05T06:56:01.046Z,0.11944444444444444
2022-08-05T06:57:13.923Z,0
2022-08-05T06:58:20.381Z,0.5972222222222222
2022-08-05T06:59:01.279Z,0.19999999999999998
2022-08-05T07:00:01.377Z,0.19999999999999998
2022-08-05T07:01:01.349Z,0.34444444444444444
2022-08-05T07:02:01.217Z,0.15833333333333333
2022-08-05T07:03:00.927Z,0.08055555555555555
2022-08-05T07:04:00.607Z,0.15833333333333333
2022-08-05T07:05:01.071Z,0.2111111111111111
2022-08-05T07:06:01.324Z,0.11944444444444444
2022-08-05T07:07:01.014Z,0.18611111111111112
2022-08-05T07:08:00.704Z,0.23888888888888887
2022-08-05T07:09:04.182Z,0.03888888888888889
2022-08-05T07:10:03.476Z,0.35833333333333334
2022-08-05T07:11:01.916Z,0.675
2022-08-05T07:12:02.715Z,1.3111111111111111
2022-08-05T07:13:00.724Z,0.4361111111111111
2022-08-05T07:14:01.294Z,0.675
2022-08-05T07:15:00.965Z,0.4361111111111111
2022-08-05T07:16:04.629Z,0.4361111111111111
2022-08-05T07:17:59.115Z,0.6083333333333333
2022-08-05T07:18:09.579Z,0.3972222222222222
2022-08-05T07:19:01.087Z,0
2022-08-05T07:20:32.954Z,0.3333333333333333
2022-08-05T07:21:04.655Z,0.9138888888888889
2022-08-05T07:22:01.609Z,1.152777777777778
2022-08-05T07:23:01.301Z,0.875
2022-08-05T07:24:01.542Z,0.9944444444444445
2022-08-05T07:25:22.751Z,0.40555555555555556
2022-08-05T07:26:01.482Z,0.875
2022-08-05T07:27:02.873Z,0.35833333333333334
2022-08-05T07:28:05.822Z,0.2777777777777778
2022-08-05T07:29:00.660Z,0.9944444444444445
2022-08-05T07:30:22.802Z,0.3805555555555556
2022-08-05T07:31:01.914Z,0.5555555555555556
2022-08-05T07:32:03.973Z,0.5555555555555556
2022-08-05T07:33:01.008Z,1.7083333333333335
2022-08-05T07:34:01.043Z,1.511111111111111
2022-08-05T07:36:01.486Z,1.55
2022-08-05T07:36:05.961Z,0.5166666666666667
2022-08-05T07:37:00.613Z,1.511111111111111
2022-08-05T07:38:00.915Z,1.3111111111111111
2022-08-05T07:39:00.603Z,0.7944444444444444
2022-08-05T07:40:32.125Z,0.875
2022-08-05T07:41:17.137Z,1.1916666666666667
2022-08-05T07:42:13.507Z,1.0333333333333334
2022-08-05T07:43:04.686Z,0.7888888888888889
2022-08-05T07:44:01.055Z,0.5166666666666667
2022-08-05T07:45:13.173Z,0.5972222222222222
2022-08-05T07:46:01.411Z,0.7944444444444444
2022-08-05T07:47:06.208Z,1.8666666666666665
2022-08-05T07:48:01.268Z,0.6361111111111111
2022-08-05T07:49:05.476Z,1.9472222222222222
2022-08-05T07:50:16.635Z,1.2722222222222221
2022-08-05T07:51:01.508Z,0.5027777777777778
2022-08-05T07:52:01.012Z,0.5972222222222222
2022-08-05T07:53:00.692Z,0.9333333333333332
2022-08-05T07:54:01.913Z,0.47777777777777775
2022-08-05T07:55:01.438Z,1.152777777777778
2022-08-05T07:56:05.159Z,1.55
2022-08-05T07:57:22.424Z,1.9472222222222222
2022-08-05T07:58:03.012Z,1.1111111111111112
2022-08-05T07:59:00.742Z,0.675
2022-08-05T08:00:00.537Z,0.7944444444444444
2022-08-05T08:01:00.511Z,1.35
2022-08-05T08:02:01.484Z,1.2722222222222221
2022-08-05T08:03:15.061Z,0.7555555555555555
2022-08-05T08:04:00.979Z,0.875
2022-08-05T08:05:00.646Z,0.3972222222222222
2022-08-05T08:06:00.505Z,0.6972222222222222
2022-08-05T08:07:00.212Z,0.9138888888888889
2022-08-05T08:08:01.218Z,1.6694444444444443
2022-08-05T08:09:01.117Z,0.9472222222222222
2022-08-05T08:10:00.817Z,0.875
2022-08-05T08:11:01.760Z,0.7555555555555555
2022-08-05T08:12:09.320Z,0.7555555555555555
2022-08-05T08:13:02.430Z,0.7555555555555555
2022-08-05T08:14:01.293Z,0.675
2022-08-05T08:15:02.389Z,0.875
2022-08-05T08:16:35.277Z,0.7944444444444444
2022-08-05T08:17:01.507Z,0.6305555555555555
2022-08-05T08:18:01.846Z,0.7555555555555555
2022-08-05T08:19:01.440Z,0.6361111111111111
2022-08-05T08:20:22.572Z,0.6472222222222223
2022-08-05T08:21:03.822Z,2.5027777777777778
2022-08-05T08:22:00.639Z,1.2722222222222221
2022-08-05T08:23:03.074Z,0.7944444444444444
2022-08-05T08:24:04.914Z,1.4222222222222223
2022-08-05T08:25:03.220Z,2.025
2022-08-05T08:26:02.755Z,2.025
2022-08-05T08:27:01.041Z,1.225
2022-08-05T08:28:01.282Z,1.0333333333333334
2022-08-05T08:29:21.998Z,1.3111111111111111
2022-08-05T08:30:05.571Z,0.6361111111111111
2022-08-05T08:31:01.120Z,0.9944444444444445
2022-08-05T08:32:00.866Z,1.4305555555555556
2022-08-05T08:33:04.427Z,1.9916666666666667
2022-08-05T08:34:01.082Z,1.35
2022-08-05T08:35:00.795Z,1.788888888888889
2022-08-05T08:36:29.863Z,0.7138888888888888
2022-08-05T08:37:03.229Z,0.9944444444444445
2022-08-05T08:38:00.804Z,0.5972222222222222
2022-08-05T08:39:01.688Z,0.8555555555555555
2022-08-05T08:40:00.856Z,0.9444444444444444
2022-08-05T08:41:02.411Z,1.2722222222222221
2022-08-05T08:42:02.245Z,1.7277777777777776
2022-08-05T08:43:21.045Z,2.113888888888889
2022-08-05T08:45:17.202Z,2.344444444444444
2022-08-05T08:45:22.800Z,0.9527777777777778
2022-08-05T08:46:01.541Z,0.7138888888888888
2022-08-05T08:47:00.561Z,1.3972222222222224
2022-08-05T08:48:12.379Z,0.9361111111111111
2022-08-05T08:50:04.034Z,0.6972222222222222
2022-08-05T08:50:23.139Z,1.4694444444444443
2022-08-05T08:51:22.299Z,1.5888888888888888
2022-08-05T08:52:03.455Z,0.4361111111111111
2022-08-05T08:53:02.451Z,0.675
2022-08-05T08:54:00.753Z,0.7138888888888888
2022-08-05T08:55:00.561Z,1.4055555555555554
2022-08-05T08:56:04.048Z,1.8305555555555555
2022-08-05T08:57:01.203Z,1.172222222222222
2022-08-05T08:58:01.199Z,0.35833333333333334
2022-08-05T08:59:00.957Z,1.3972222222222224
2022-08-05T09:00:00.643Z,0.8333333333333333
2022-08-05T09:01:00.866Z,1.0833333333333333
2022-08-05T09:02:00.939Z,1.7472222222222222
2022-08-05T09:03:00.990Z,1.5888888888888888
2022-08-05T09:04:00.659Z,0.6861111111111111
2022-08-05T09:05:16.786Z,0.9138888888888889
2022-08-05T09:06:08.700Z,0.40555555555555556
2022-08-05T09:07:00.712Z,1.7138888888888888
2022-08-05T09:08:00.807Z,1.3916666666666666
2022-08-05T09:09:00.532Z,0.9555555555555555
2022-08-05T09:10:00.819Z,0.3972222222222222
2022-08-05T09:11:02.471Z,1.3055555555555556
2022-08-05T09:12:06.025Z,0.9944444444444445
2022-08-05T09:13:05.149Z,1.3111111111111111
2022-08-05T09:14:54.279Z,1.8277777777777777
2022-08-05T09:15:05.728Z,1.3527777777777779
2022-08-05T09:16:04.561Z,0.7138888888888888
2022-08-05T09:17:01.275Z,0.8333333333333333
2022-08-05T09:18:00.967Z,1.3666666666666667
2022-08-05T09:19:00.729Z,0.5555555555555556
2022-08-05T09:20:02.772Z,1.2138888888888888
2022-08-05T09:21:11.486Z,0.4361111111111111
2022-08-05T09:22:30.837Z,0.5972222222222222
2022-08-05T09:23:04.837Z,1.152777777777778
2022-08-05T09:24:02.520Z,0.5555555555555556
2022-08-05T09:25:01.653Z,1.1916666666666667
2022-08-05T09:26:09.577Z,1.5083333333333333
2022-08-05T09:27:02.115Z,0.3527777777777778
2022-08-05T09:28:04.479Z,0.3333333333333333
2022-08-05T09:29:01.198Z,1.1138888888888887
2022-08-05T09:30:06.301Z,0.6944444444444444
2022-08-05T09:31:22.637Z,0.3972222222222222
2022-08-05T09:32:43.055Z,0.25833333333333336
2022-08-05T09:33:02.499Z,0.9944444444444445
2022-08-05T09:34:00.658Z,0.8250000000000001
2022-08-05T09:35:00.982Z,0.2777777777777778
2022-08-05T09:36:16.298Z,0.31666666666666665
2022-08-05T09:37:00.998Z,1.575
2022-08-05T09:38:16.907Z,0.6555555555555556
2022-08-05T09:39:00.836Z,0.5972222222222222
2022-08-05T09:40:00.618Z,0.875
2022-08-05T09:41:16.233Z,0.47777777777777775
2022-08-05T09:42:01.741Z,0.575
2022-08-05T09:43:01.859Z,0.7416666666666666
2022-08-05T09:44:01.245Z,0.5166666666666667
2022-08-05T09:45:17.250Z,0.875
2022-08-05T09:46:15.599Z,0.675
2022-08-05T09:47:01.049Z,0.7138888888888888
2022-08-05T09:48:02.268Z,0.47777777777777775
2022-08-05T09:49:08.190Z,1.3111111111111111
2022-08-05T09:50:03.361Z,0.875
2022-08-05T09:51:00.980Z,0.3972222222222222
2022-08-05T09:52:01.107Z,0.9138888888888889
2022-08-05T09:53:01.066Z,0.675
2022-08-05T09:54:00.847Z,1.1916666666666667
2022-08-05T09:55:55.636Z,0.7555555555555555
2022-08-05T09:56:04.699Z,0.3972222222222222
2022-08-05T09:57:01.638Z,0.3972222222222222
2022-08-05T09:58:00.802Z,1.2305555555555554
2022-08-05T09:59:00.806Z,1.5833333333333333
2022-08-05T10:00:04.742Z,1.4305555555555556
2022-08-05T10:01:01.066Z,0.4361111111111111
2022-08-05T10:02:00.975Z,1.35
2022-08-05T10:03:01.001Z,0.2777777777777778
2022-08-05T10:04:00.779Z,0.19999999999999998
2022-08-05T10:05:00.499Z,0.31666666666666665
2022-08-05T10:06:03.618Z,0.31666666666666665
2022-08-05T10:07:19.681Z,0.7138888888888888
2022-08-05T10:08:34.947Z,1.55
2022-08-05T10:09:01.355Z,0.35
2022-08-05T10:10:14.212Z,0.3972222222222222
2022-08-05T10:11:00.914Z,0.5555555555555556
2022-08-05T10:12:04.789Z,1.1916666666666667
2022-08-05T10:13:02.290Z,0.5166666666666667
2022-08-05T10:14:00.739Z,0.3972222222222222
2022-08-05T10:15:02.501Z,0.2777777777777778
2022-08-05T10:16:01.153Z,0.35555555555555557
2022-08-05T10:17:01.535Z,1.0333333333333334
2022-08-05T10:18:00.649Z,0.9138888888888889
2022-08-05T10:19:01.194Z,0.675
2022-08-05T10:20:03.865Z,0.7555555555555555
2022-08-05T10:21:06.123Z,0.7944444444444444
2022-08-05T10:22:01.180Z,0.47777777777777775
2022-08-05T10:23:00.880Z,0.875
2022-08-05T10:24:06.246Z,2.025
2022-08-05T10:25:00.553Z,1.3111111111111111
2022-08-05T10:26:00.796Z,0.5972222222222222
2022-08-05T10:27:01.264Z,1.3111111111111111
2022-08-05T10:28:16.645Z,0.5555555555555556
2022-08-05T10:29:01.125Z,0.2111111111111111
2022-08-05T10:30:07.105Z,1.55
2022-08-05T10:32:52.052Z,0.9138888888888889
2022-08-05T10:32:52.877Z,0.8333333333333333
2022-08-05T10:33:02.824Z,0.7111111111111111
2022-08-05T10:34:01.491Z,0.9944444444444445
2022-08-05T10:35:01.508Z,0.7944444444444444
2022-08-05T10:36:00.867Z,0.4361111111111111
2022-08-05T10:37:00.667Z,1.0333333333333334
2022-08-05T10:38:00.447Z,0.4361111111111111
2022-08-05T10:39:05.241Z,1.152777777777778
2022-08-05T10:40:04.534Z,1.0333333333333334
2022-08-05T10:41:01.334Z,0.4361111111111111
2022-08-05T10:42:01.458Z,0.5555555555555556
2022-08-05T10:43:01.122Z,0.5166666666666667
2022-08-05T10:44:00.836Z,0.4361111111111111
2022-08-05T10:45:00.829Z,1.0333333333333334
2022-08-05T10:46:06.809Z,0.2777777777777778
2022-08-05T10:47:01.267Z,0.7944444444444444
2022-08-05T10:48:30.076Z,1.0722222222222222
2022-08-05T10:49:09.882Z,0.6